Lost Springs, Wyoming
Current Conditions -  °F | °C
As of 5:53 PM on Monday 22 Dec 2014 (Local Time) from KDGW Reporting Station
Few Clouds Few Clouds  
Wind Chill: 15°   Ceiling: Unl
Heat Index: 29°   Visibility: 10mi
Dew Point: 22°   Wind: 22mph
Humidity: 75%   Direction: 320°NW
Pressure: 29.8"   Gusts: 31mph
Location:  42.77°N, 104.93°W
Report Text: KDGW 230053Z AUTO 32019G27KT 10SM FEW028 M02/M06 A2980 RMK AO2 PK WND 32027/0050 SLP125 T10171056
Loading
Personal Weather Stations






























Interactive Weather Map New forecast layout! Learn more

10-Day Weather Forecast

Advertisements
Track Severe Weather on mobile